Flight Track Log - Related Links

Times and Time Zones

All times are in EDT time to prevent confusion due to time zone crossing. See the N317FL flight status page for this flight to view local times or setup timezone preferences in your user account.

Time Position Orientation Groundspeed Altitude Reporting Facility
EDT Latitude Longitude Course Direction KTS MPH feet Rate Location/Type
Thu 08:11:27 AM 38.9690 -77.4390 353° North 193 222 3,000  Level FlightAware ADS-B
Thu 08:11:47 AM 38.9900 -77.4410 356° North 218 251 4,500 4,050 Climbing FlightAware ADS-B
Thu 08:12:07 AM 39.0100 -77.4440 353° North 231 266 5,700 4,200 Climbing FlightAware ADS-B
Thu 08:12:37 AM 39.0430 -77.4480 355° North 235 270 8,000 3,164 Climbing FlightAware ADS-B
Thu 08:13:02 AM 39.0690 -77.4500 357° North 266 306 8,600 764 Climbing FlightAware ADS-B
Thu 08:13:32 AM 39.1090 -77.4320 19° North 303 349 8,700 109 Climbing FlightAware ADS-B
Thu 08:13:57 AM 39.1350 -77.4070 37° Northeast 302 348 8,700  Level FlightAware ADS-B
Thu 08:14:12 AM 39.1510 -77.3910 38° Northeast 299 344 8,700  Level FlightAware ADS-B
Thu 08:14:42 AM 39.1840 -77.3530 42° Northeast 302 348 8,700  Level FlightAware ADS-B
Thu 08:14:57 AM 39.1950 -77.3300 58° Northeast 300 345 8,700  Level FlightAware ADS-B
Thu 08:15:22 AM 39.2140 -77.2920 57° Northeast 297 342 8,700 750 Level FlightAware ADS-B
Thu 08:15:37 AM 39.2250 -77.2700 57° Northeast 296 341 9,200 3,273 Climbing FlightAware ADS-B
Thu 08:16:17 AM 39.2550 -77.2090 58° Northeast 311 358 11,700 3,318 Climbing FlightAware ADS-B
Thu 08:17:02 AM 39.2910 -77.1350 58° Northeast 349 402 13,900 2,118 Climbing FlightAware ADS-B
Thu 08:17:42 AM 39.3240 -77.0570 61° Northeast 380 437 14,700 873 Climbing FlightAware ADS-B
Thu 08:17:57 AM 39.3280 -77.0210 82° East 384 442 14,700 873 Level FlightAware ADS-B
Thu 08:18:37 AM 39.3140 -76.9330 102° East 380 437 15,500 2,100 Climbing FlightAware ADS-B
Thu 08:19:17 AM 39.2950 -76.8470 106° East 392 451 17,500 3,136 Climbing FlightAware ADS-B
Thu 08:20:05 AM 39.2677 -76.7274 106° East 399 459 20,100 3,154 Climbing FlightAware ADS-B
Thu 08:20:35 AM 39.2517 -76.6584 107° East 403 464 21,600 2,952 Climbing FlightAware ADS-B
Thu 08:21:08 AM 39.2341 -76.5825 107° East 401 461 23,200 2,954 Climbing FlightAware ADS-B
Thu 08:21:40 AM 39.2172 -76.5095 107° East 398 458 24,800 3,000 Climbing FlightAware ADS-B
Thu 08:22:12 AM 39.2003 -76.4370 107° East 392 451 26,400 2,164 Climbing FlightAware ADS-B
Thu 08:22:41 AM 39.1850 -76.3702 106° East 418 481 27,000 923 Climbing FlightAware ADS-B
Thu 08:22:51 AM 39.1816 -76.3465 100° East 437 503 27,000  Level FlightAware ADS-B
Thu 08:23:00 AM 39.1800 -76.3220 95° East 453 521 27,000  Level FlightAware ADS-B
Thu 08:23:11 AM 39.1806 -76.2914 89° East 468 539 27,000  Level FlightAware ADS-B
Thu 08:23:23 AM 39.1847 -76.2568 81° East 477 549 27,000  Level FlightAware ADS-B
Thu 08:23:42 AM 39.1973 -76.2060 72° East 487 560 27,000  Level FlightAware ADS-B
Thu 08:24:00 AM 39.2165 -76.1606 61° Northeast 491 565 27,000  Level FlightAware ADS-B
Thu 08:24:06 AM 39.2253 -76.1447 54° Northeast 491 565 27,000  Level FlightAware ADS-B
Thu 08:24:19 AM 39.2443 -76.1167 49° Northeast 492 566 27,000 -1,455 Level FlightAware ADS-B
Thu 08:24:39 AM 39.2791 -76.0782 41° Northeast 481 554 26,200 -2,538 Descending FlightAware ADS-B
Thu 08:25:11 AM 39.3370 -76.0268 34° Northeast 470 541 24,800 -2,677 Descending FlightAware ADS-B
Thu 08:25:44 AM 39.3938 -75.9742 36° Northeast 466 536 23,300 -2,762 Descending FlightAware ADS-B
Thu 08:26:14 AM 39.4465 -75.9244 36° Northeast 461 531 21,900 -2,656 Descending FlightAware ADS-B
Thu 08:26:45 AM 39.4989 -75.8746 36° Northeast 453 521 20,600 -2,656 Descending FlightAware ADS-B
Thu 08:27:15 AM 39.5500 -75.8262 36° Northeast 443 510 19,200 -2,754 Descending FlightAware ADS-B
Thu 08:27:46 AM 39.5994 -75.7793 36° Northeast 435 501 17,800 -2,656 Descending FlightAware ADS-B
Thu 08:28:16 AM 39.6484 -75.7346 35° Northeast 426 490 16,500 -2,700 Descending FlightAware ADS-B
Thu 08:28:46 AM 39.6977 -75.6896 35° Northeast 419 482 15,100 -2,613 Descending FlightAware ADS-B
Thu 08:29:18 AM 39.7470 -75.6442 35° Northeast 406 467 13,800 -2,129 Descending FlightAware ADS-B
Thu 08:29:48 AM 39.7920 -75.6027 35° Northeast 383 441 12,900 -1,082 Descending FlightAware ADS-B
Thu 08:30:19 AM 39.8357 -75.5624 35° Northeast 370 426 12,700 -194 Descending FlightAware ADS-B
Thu 08:30:50 AM 39.8781 -75.5233 35° Northeast 369 425 12,700  Level FlightAware ADS-B
Thu 08:31:20 AM 39.9204 -75.4842 35° Northeast 369 425 12,700  Level FlightAware ADS-B
Thu 08:31:51 AM 39.9636 -75.4442 35° Northeast 369 425 12,700 -393 Level FlightAware ADS-B
Thu 08:32:21 AM 40.0056 -75.4052 35° Northeast 372 428 12,300 -900 Descending FlightAware ADS-B
Thu 08:32:51 AM 40.0477 -75.3660 35° Northeast 371 427 11,800 -1,000 Descending FlightAware ADS-B
Thu 08:33:21 AM 40.0897 -75.3269 35° Northeast 368 423 11,300 -1,000 Descending FlightAware ADS-B
Thu 08:33:51 AM 40.1311 -75.2882 36° Northeast 363 418 10,800 -590 Descending FlightAware ADS-B
Thu 08:34:22 AM 40.1724 -75.2496 36° Northeast 358 412 10,700 -194 Descending FlightAware ADS-B
Thu 08:34:53 AM 40.2145 -75.2104 35° Northeast 350 403 10,600 -590 Descending FlightAware ADS-B
Thu 08:35:23 AM 40.2527 -75.1747 35° Northeast 327 376 10,100 -1,043 Descending FlightAware ADS-B
Thu 08:35:39 AM 40.2717 -75.1568 36° Northeast 317 365 9,800 -968 Descending FlightAware ADS-B
Thu 08:35:54 AM 40.2896 -75.1400 36° Northeast 310 357 9,600 -968 Descending FlightAware ADS-B
Thu 08:36:10 AM 40.3075 -75.1234 35° Northeast 304 350 9,300 -1,111 Descending FlightAware ADS-B
Thu 08:36:21 AM 40.3206 -75.1105 37° Northeast 303 349 9,100 -1,200 Descending FlightAware ADS-B
Thu 08:36:25 AM 40.3252 -75.1053 41° Northeast 303 349 9,000 -750 Descending FlightAware ADS-B
Thu 08:36:29 AM 40.3283 -75.1013 45° Northeast 303 349 9,000 -900 Level FlightAware ADS-B
Thu 08:36:45 AM 40.3436 -75.0792 48° Northeast 302 348 8,700 -968 Descending FlightAware ADS-B
Thu 08:37:00 AM 40.3580 -75.0589 47° Northeast 300 345 8,500 -1,000 Descending FlightAware ADS-B
Thu 08:37:15 AM 40.3725 -75.0387 47° Northeast 300 345 8,200 -968 Descending FlightAware ADS-B
Thu 08:37:31 AM 40.3871 -75.0184 47° Northeast 300 345 8,000 -968 Descending FlightAware ADS-B
Thu 08:37:46 AM 40.4016 -74.9981 47° Northeast 298 343 7,700 -1,200 Descending FlightAware ADS-B
Thu 08:38:01 AM 40.4159 -74.9779 47° Northeast 296 341 7,400 -968 Descending FlightAware ADS-B
Thu 08:38:17 AM 40.4311 -74.9565 47° Northeast 294 338 7,200 -938 Descending FlightAware ADS-B
Thu 08:38:33 AM 40.4454 -74.9363 47° Northeast 292 336 6,900 -968 Descending FlightAware ADS-B
Thu 08:38:48 AM 40.4594 -74.9166 47° Northeast 289 333 6,700 -1,200 Descending FlightAware ADS-B
Thu 08:39:03 AM 40.4733 -74.8970 47° Northeast 289 333 6,300 -1,548 Descending FlightAware ADS-B
Thu 08:39:19 AM 40.4872 -74.8774 47° Northeast 284 327 5,900 -1,636 Descending FlightAware ADS-B
Thu 08:39:36 AM 40.5025 -74.8558 47° Northeast 277 319 5,400 -1,543 Descending FlightAware ADS-B
Thu 08:39:54 AM 40.5177 -74.8343 47° Northeast 267 307 5,000 -1,500 Descending FlightAware ADS-B
Thu 08:40:12 AM 40.5325 -74.8133 47° Northeast 260 299 4,500 -1,636 Descending FlightAware ADS-B
Thu 08:40:38 AM 40.5536 -74.7835 47° Northeast 251 289 3,800 -1,692 Descending FlightAware ADS-B
Thu 08:40:51 AM 40.5626 -74.7682 52° Northeast 254 292 3,400 -1,765 Descending FlightAware ADS-B
Thu 08:40:55 AM 40.5649 -74.7614 66° East 257 296 3,300 -1,440 Descending FlightAware ADS-B
Thu 08:41:16 AM 40.5732 -74.7312 70° East 260 299 2,800 -769 Descending FlightAware ADS-B
Thu 08:41:34 AM 40.5812 -74.7049 68° East 258 297 2,800  Level FlightAware ADS-B
Thu 08:41:51 AM 40.5888 -74.6799 68° East 255 293 2,800  Level FlightAware ADS-B
Thu 08:42:11 AM 40.5977 -74.6505 68° East 255 293 2,800  Level FlightAware ADS-B
Thu 08:42:37 AM 40.6089 -74.6130 69° East 255 293 2,800  Level FlightAware ADS-B
Thu 08:42:55 AM 40.6166 -74.5871 69° East 261 300 2,800 -600 Level FlightAware ADS-B
Thu 08:43:37 AM 40.6330 -74.5330 68° East 236 272 2,200 -833 Descending FlightAware ADS-B
Thu 08:44:07 AM 40.6450 -74.4920 69° East 215 247 1,800 -400 Descending FlightAware ADS-B
Thu 08:44:37 AM 40.6550 -74.4580 69° East 199 229 1,800  Level FlightAware ADS-B
Thu 08:45:02 AM 40.6640 -74.4280 68° East 197 227 1,800  Level FlightAware ADS-B

Login

Don't have an account? Register now (free) for customized features, flight alerts, and more!